sensor_id;sensor_type;location;lat;lon;timestamp;pressure;altitude;pressure_sealevel;temperature;humidity
50684;BME280;36654;45.042;38.994;2022-07-25T00:00:30;100740.69;;;20.33;78.89
50684;BME280;36654;45.042;38.994;2022-07-25T00:02:56;100741.53;;;20.35;78.90
50684;BME280;36654;45.042;38.994;2022-07-25T00:05:22;100722.03;;;20.27;78.93
50684;BME280;36654;45.042;38.994;2022-07-25T00:07:48;100729.06;;;20.31;78.79
50684;BME280;36654;45.042;38.994;2022-07-25T00:10:14;100720.25;;;20.26;78.57
50684;BME280;36654;45.042;38.994;2022-07-25T00:12:40;100726.50;;;20.26;78.92
50684;BME280;36654;45.042;38.994;2022-07-25T00:15:06;100730.84;;;20.32;79.02
50684;BME280;36654;45.042;38.994;2022-07-25T00:17:32;100722.09;;;20.24;78.98
50684;BME280;36654;45.042;38.994;2022-07-25T00:19:57;100738.00;;;20.33;78.93
50684;BME280;36654;45.042;38.994;2022-07-25T00:22:23;100714.25;;;20.16;79.19
50684;BME280;36654;45.042;38.994;2022-07-25T00:24:49;100734.66;;;20.25;79.37
50684;BME280;36654;45.042;38.994;2022-07-25T00:27:14;100736.31;;;20.29;79.27
50684;BME280;36654;45.042;38.994;2022-07-25T00:29:40;100732.84;;;20.24;79.09
50684;BME280;36654;45.042;38.994;2022-07-25T00:32:06;100672.78;;;19.92;79.27
50684;BME280;36654;45.042;38.994;2022-07-25T00:34:31;100726.72;;;20.19;79.20
50684;BME280;36654;45.042;38.994;2022-07-25T00:36:57;100734.66;;;20.25;79.48
50684;BME280;36654;45.042;38.994;2022-07-25T00:39:23;100731.06;;;20.24;79.67
50684;BME280;36654;45.042;38.994;2022-07-25T00:41:48;100715.97;;;20.19;79.72
50684;BME280;36654;45.042;38.994;2022-07-25T00:44:25;100720.34;;;20.23;79.74
50684;BME280;36654;45.042;38.994;2022-07-25T00:46:52;100716.81;;;20.21;79.89
50684;BME280;36654;45.042;38.994;2022-07-25T00:49:18;100692.09;;;20.07;79.76
50684;BME280;36654;45.042;38.994;2022-07-25T00:51:44;100708.00;;;20.16;79.88
50684;BME280;36654;45.042;38.994;2022-07-25T00:54:10;100720.53;;;20.17;79.97
50684;BME280;36654;45.042;38.994;2022-07-25T00:56:37;100721.47;;;20.14;79.75
50684;BME280;36654;45.042;38.994;2022-07-25T00:59:03;100720.78;;;20.08;80.19
50684;BME280;36654;45.042;38.994;2022-07-25T01:01:28;100728.09;;;20.02;80.37
50684;BME280;36654;45.042;38.994;2022-07-25T01:03:54;100708.78;;;19.87;80.44
50684;BME280;36654;45.042;38.994;2022-07-25T01:06:20;100727.47;;;19.93;80.73
50684;BME280;36654;45.042;38.994;2022-07-25T01:08:46;100725.00;;;19.85;80.66
50684;BME280;36654;45.042;38.994;2022-07-25T01:11:12;100713.41;;;19.83;80.79
50684;BME280;36654;45.042;38.994;2022-07-25T01:13:38;100722.47;;;19.79;80.88
50684;BME280;36654;45.042;38.994;2022-07-25T01:16:04;100716.09;;;19.83;81.07
50684;BME280;36654;45.042;38.994;2022-07-25T01:18:29;100725.97;;;19.82;81.33
50684;BME280;36654;45.042;38.994;2022-07-25T01:20:55;100732.34;;;19.78;80.98
50684;BME280;36654;45.042;38.994;2022-07-25T01:23:21;100736.84;;;19.78;81.24
50684;BME280;36654;45.042;38.994;2022-07-25T01:25:47;100728.03;;;19.71;81.42
50684;BME280;36654;45.042;38.994;2022-07-25T01:28:13;100715.63;;;19.67;81.69
50684;BME280;36654;45.042;38.994;2022-07-25T01:30:38;100730.78;;;19.70;82.33
50684;BME280;36654;45.042;38.994;2022-07-25T01:33:04;100731.75;;;19.67;82.25
50684;BME280;36654;45.042;38.994;2022-07-25T01:35:30;100727.25;;;19.68;82.02
50684;BME280;36654;45.042;38.994;2022-07-25T01:37:55;100729.88;;;19.71;82.45
50684;BME280;36654;45.042;38.994;2022-07-25T01:40:21;100687.34;;;19.51;82.26
50684;BME280;36654;45.042;38.994;2022-07-25T01:42:47;100725.41;;;19.70;82.35
50684;BME280;36654;45.042;38.994;2022-07-25T01:45:13;100734.25;;;19.75;82.53
50684;BME280;36654;45.042;38.994;2022-07-25T01:47:39;100713.69;;;19.72;82.47
50684;BME280;36654;45.042;38.994;2022-07-25T01:50:05;100727.78;;;19.82;82.66
50684;BME280;36654;45.042;38.994;2022-07-25T01:52:31;100732.22;;;19.83;82.55
50684;BME280;36654;45.042;38.994;2022-07-25T01:54:57;100731.38;;;19.81;82.39
50684;BME280;36654;45.042;38.994;2022-07-25T01:57:22;100736.66;;;19.84;82.14
50684;BME280;36654;45.042;38.994;2022-07-25T01:59:48;100733.06;;;19.85;82.48
50684;BME280;36654;45.042;38.994;2022-07-25T02:02:14;100738.56;;;19.80;82.15
50684;BME280;36654;45.042;38.994;2022-07-25T02:04:40;100728.59;;;19.84;82.41
50684;BME280;36654;45.042;38.994;2022-07-25T02:07:05;100691.38;;;19.69;81.89
50684;BME280;36654;45.042;38.994;2022-07-25T02:09:31;100739.03;;;19.96;81.92
50684;BME280;36654;45.042;38.994;2022-07-25T02:11:57;100729.28;;;19.92;82.19
50684;BME280;36654;45.042;38.994;2022-07-25T02:14:22;100707.16;;;19.81;82.33
50684;BME280;36654;45.042;38.994;2022-07-25T02:16:48;100715.56;;;20.01;81.98
50684;BME280;36654;45.042;38.994;2022-07-25T02:19:14;100713.00;;;20.28;81.39
50684;BME280;36654;45.042;38.994;2022-07-25T02:21:40;100743.78;;;20.80;80.11
50684;BME280;36654;45.042;38.994;2022-07-25T02:24:05;100730.06;;;21.16;78.68
50684;BME280;36654;45.042;38.994;2022-07-25T02:26:32;100720.19;;;21.45;76.80
50684;BME280;36654;45.042;38.994;2022-07-25T02:28:57;100742.00;;;21.89;75.17
50684;BME280;36654;45.042;38.994;2022-07-25T02:31:23;100741.25;;;22.10;74.02
50684;BME280;36654;45.042;38.994;2022-07-25T02:33:49;100735.72;;;22.38;72.13
50684;BME280;36654;45.042;38.994;2022-07-25T02:36:15;100734.75;;;22.65;71.08
50684;BME280;36654;45.042;38.994;2022-07-25T02:38:40;100737.06;;;22.97;70.22
50684;BME280;36654;45.042;38.994;2022-07-25T02:41:06;100738.38;;;23.31;68.88
50684;BME280;36654;45.042;38.994;2022-07-25T02:43:32;100740.00;;;23.79;67.24
50684;BME280;36654;45.042;38.994;2022-07-25T02:45:58;100729.50;;;24.13;65.31
50684;BME280;36654;45.042;38.994;2022-07-25T02:48:24;100690.13;;;24.24;63.70
50684;BME280;36654;45.042;38.994;2022-07-25T02:50:49;100715.25;;;24.67;62.94
50684;BME280;36654;45.042;38.994;2022-07-25T02:53:15;100744.19;;;25.24;61.52
50684;BME280;36654;45.042;38.994;2022-07-25T02:55:41;100744.53;;;25.52;59.83
50684;BME280;36654;45.042;38.994;2022-07-25T02:58:06;100745.19;;;25.75;59.29
50684;BME280;36654;45.042;38.994;2022-07-25T03:00:33;100744.63;;;26.03;58.88
50684;BME280;36654;45.042;38.994;2022-07-25T03:02:58;100732.13;;;26.34;56.73
50684;BME280;36654;45.042;38.994;2022-07-25T03:05:24;100730.56;;;26.45;56.19
50684;BME280;36654;45.042;38.994;2022-07-25T03:07:50;100700.34;;;26.18;56.01
50684;BME280;36654;45.042;38.994;2022-07-25T03:10:15;100729.63;;;26.46;56.09
50684;BME280;36654;45.042;38.994;2022-07-25T03:12:42;100734.69;;;26.70;55.60
50684;BME280;36654;45.042;38.994;2022-07-25T03:15:08;100721.44;;;26.64;54.97
50684;BME280;36654;45.042;38.994;2022-07-25T03:17:35;100680.22;;;26.22;55.80
50684;BME280;36654;45.042;38.994;2022-07-25T03:20:00;100734.81;;;26.51;55.64
50684;BME280;36654;45.042;38.994;2022-07-25T03:22:26;100714.25;;;26.45;55.79
50684;BME280;36654;45.042;38.994;2022-07-25T03:24:52;100726.09;;;26.62;55.96
50684;BME280;36654;45.042;38.994;2022-07-25T03:27:18;100718.38;;;26.70;55.13
50684;BME280;36654;45.042;38.994;2022-07-25T03:29:44;100714.94;;;26.66;55.30
50684;BME280;36654;45.042;38.994;2022-07-25T03:32:10;100723.47;;;26.76;55.52
50684;BME280;36654;45.042;38.994;2022-07-25T03:34:35;100711.00;;;26.88;54.71
50684;BME280;36654;45.042;38.994;2022-07-25T03:37:02;100728.72;;;26.95;54.42
50684;BME280;36654;45.042;38.994;2022-07-25T03:39:28;100683.81;;;26.72;54.49
50684;BME280;36654;45.042;38.994;2022-07-25T03:41:54;100728.47;;;27.00;54.76
50684;BME280;36654;45.042;38.994;2022-07-25T03:44:22;100715.47;;;27.05;54.17
50684;BME280;36654;45.042;38.994;2022-07-25T03:46:49;100718.47;;;27.16;53.91
50684;BME280;36654;45.042;38.994;2022-07-25T03:49:15;100714.69;;;27.35;53.81
50684;BME280;36654;45.042;38.994;2022-07-25T03:51:41;100714.94;;;27.46;53.04
50684;BME280;36654;45.042;38.994;2022-07-25T03:54:06;100717.28;;;27.52;53.02
50684;BME280;36654;45.042;38.994;2022-07-25T03:56:43;100720.25;;;27.63;52.78
50684;BME280;36654;45.042;38.994;2022-07-25T03:59:11;100712.69;;;27.68;52.13
50684;BME280;36654;45.042;38.994;2022-07-25T04:01:37;100711.28;;;27.61;52.62
50684;BME280;36654;45.042;38.994;2022-07-25T04:04:03;100721.44;;;27.73;52.58
50684;BME280;36654;45.042;38.994;2022-07-25T04:06:29;100716.22;;;27.85;51.87
50684;BME280;36654;45.042;38.994;2022-07-25T04:08:55;100714.50;;;27.84;51.69
50684;BME280;36654;45.042;38.994;2022-07-25T04:11:23;100712.56;;;27.70;52.15
50684;BME280;36654;45.042;38.994;2022-07-25T04:13:49;100712.09;;;27.78;51.92
50684;BME280;36654;45.042;38.994;2022-07-25T04:16:15;100718.00;;;28.00;51.41
50684;BME280;36654;45.042;38.994;2022-07-25T04:18:41;100713.44;;;28.15;50.83
50684;BME280;36654;45.042;38.994;2022-07-25T04:21:07;100722.31;;;28.18;50.48
50684;BME280;36654;45.042;38.994;2022-07-25T04:23:33;100717.53;;;28.22;50.28
50684;BME280;36654;45.042;38.994;2022-07-25T04:25:59;100710.34;;;28.35;49.59
50684;BME280;36654;45.042;38.994;2022-07-25T04:28:25;100729.56;;;28.48;50.24
50684;BME280;36654;45.042;38.994;2022-07-25T04:30:51;100700.53;;;28.47;49.83
50684;BME280;36654;45.042;38.994;2022-07-25T04:33:17;100698.31;;;28.54;49.24
50684;BME280;36654;45.042;38.994;2022-07-25T04:35:43;100723.06;;;28.92;48.29
50684;BME280;36654;45.042;38.994;2022-07-25T04:38:09;100720.91;;;28.97;48.11
50684;BME280;36654;45.042;38.994;2022-07-25T04:40:35;100709.59;;;29.03;48.14
50684;BME280;36654;45.042;38.994;2022-07-25T04:43:02;100702.28;;;29.18;47.13
50684;BME280;36654;45.042;38.994;2022-07-25T04:45:28;100685.56;;;29.23;47.06
50684;BME280;36654;45.042;38.994;2022-07-25T04:47:54;100713.09;;;29.60;46.31
50684;BME280;36654;45.042;38.994;2022-07-25T04:50:20;100726.09;;;29.83;45.68
50684;BME280;36654;45.042;38.994;2022-07-25T04:52:45;100712.53;;;29.95;45.62
50684;BME280;36654;45.042;38.994;2022-07-25T04:55:11;100717.03;;;30.21;45.66
50684;BME280;36654;45.042;38.994;2022-07-25T04:57:37;100714.53;;;30.44;44.84
50684;BME280;36654;45.042;38.994;2022-07-25T05:00:07;100715.00;;;30.74;43.73
50684;BME280;36654;45.042;38.994;2022-07-25T05:02:34;100715.53;;;31.05;43.42
50684;BME280;36654;45.042;38.994;2022-07-25T05:05:00;100723.94;;;31.39;43.05
50684;BME280;36654;45.042;38.994;2022-07-25T05:07:26;100692.25;;;31.48;42.14
50684;BME280;36654;45.042;38.994;2022-07-25T05:09:52;100693.44;;;31.68;42.07
50684;BME280;36654;45.042;38.994;2022-07-25T05:12:18;100720.94;;;32.01;41.40
50684;BME280;36654;45.042;38.994;2022-07-25T05:14:44;100721.19;;;32.10;41.00
50684;BME280;36654;45.042;38.994;2022-07-25T05:17:10;100723.47;;;32.16;40.86
50684;BME280;36654;45.042;38.994;2022-07-25T05:19:36;100708.13;;;32.13;40.46
50684;BME280;36654;45.042;38.994;2022-07-25T05:22:02;100702.78;;;32.23;40.53
50684;BME280;36654;45.042;38.994;2022-07-25T05:24:28;100713.97;;;32.42;39.94
50684;BME280;36654;45.042;38.994;2022-07-25T05:26:53;100720.03;;;32.59;39.99
50684;BME280;36654;45.042;38.994;2022-07-25T05:29:19;100718.75;;;32.74;39.28
50684;BME280;36654;45.042;38.994;2022-07-25T05:31:45;100672.13;;;32.63;39.08
50684;BME280;36654;45.042;38.994;2022-07-25T05:34:10;100720.00;;;32.93;39.11
50684;BME280;36654;45.042;38.994;2022-07-25T05:36:36;100665.47;;;32.77;38.99
50684;BME280;36654;45.042;38.994;2022-07-25T05:39:02;100678.91;;;33.02;38.15
50684;BME280;36654;45.042;38.994;2022-07-25T05:41:28;100701.72;;;33.25;37.88
50684;BME280;36654;45.042;38.994;2022-07-25T05:43:53;100679.91;;;33.13;37.91
50684;BME280;36654;45.042;38.994;2022-07-25T05:46:19;100689.66;;;33.05;38.17
50684;BME280;36654;45.042;38.994;2022-07-25T05:48:45;100667.72;;;32.83;37.83
50684;BME280;36654;45.042;38.994;2022-07-25T05:51:10;100704.25;;;32.95;38.80
50684;BME280;36654;45.042;38.994;2022-07-25T05:53:36;100708.00;;;32.94;38.87
50684;BME280;36654;45.042;38.994;2022-07-25T05:56:02;100701.91;;;32.90;39.37
50684;BME280;36654;45.042;38.994;2022-07-25T05:58:28;100714.03;;;32.87;39.55
50684;BME280;36654;45.042;38.994;2022-07-25T06:00:54;100717.03;;;32.73;39.29
50684;BME280;36654;45.042;38.994;2022-07-25T06:03:19;100709.78;;;32.61;39.67
50684;BME280;36654;45.042;38.994;2022-07-25T06:05:45;100713.41;;;32.61;39.59
50684;BME280;36654;45.042;38.994;2022-07-25T06:08:15;100693.56;;;32.47;39.94
50684;BME280;36654;45.042;38.994;2022-07-25T06:10:41;100704.78;;;32.55;39.83
50684;BME280;36654;45.042;38.994;2022-07-25T06:13:07;100706.31;;;32.70;39.72
50684;BME280;36654;45.042;38.994;2022-07-25T06:15:33;100710.28;;;32.66;39.39
50684;BME280;36654;45.042;38.994;2022-07-25T06:17:59;100703.31;;;32.51;39.28
50684;BME280;36654;45.042;38.994;2022-07-25T06:20:24;100664.63;;;32.20;39.79
50684;BME280;36654;45.042;38.994;2022-07-25T06:22:51;100694.53;;;32.34;40.35
50684;BME280;36654;45.042;38.994;2022-07-25T06:25:17;100687.31;;;32.11;40.39
50684;BME280;36654;45.042;38.994;2022-07-25T06:27:43;100698.59;;;31.95;40.14
50684;BME280;36654;45.042;38.994;2022-07-25T06:30:10;100695.09;;;31.57;40.88
50684;BME280;36654;45.042;38.994;2022-07-25T06:32:37;100697.34;;;31.04;40.55
50684;BME280;36654;45.042;38.994;2022-07-25T06:35:02;100664.75;;;30.51;41.46
50684;BME280;36654;45.042;38.994;2022-07-25T06:37:28;100663.78;;;30.14;42.44
50684;BME280;36654;45.042;38.994;2022-07-25T06:39:54;100683.00;;;30.00;43.50
50684;BME280;36654;45.042;38.994;2022-07-25T06:42:20;100696.81;;;29.85;43.22
50684;BME280;36654;45.042;38.994;2022-07-25T06:44:45;100676.41;;;29.64;44.18
50684;BME280;36654;45.042;38.994;2022-07-25T06:47:11;100682.38;;;29.43;44.52
50684;BME280;36654;45.042;38.994;2022-07-25T06:49:38;100671.31;;;29.32;44.29
50684;BME280;36654;45.042;38.994;2022-07-25T06:52:05;100679.72;;;29.29;44.61
50684;BME280;36654;45.042;38.994;2022-07-25T06:54:31;100675.69;;;29.08;45.22
50684;BME280;36654;45.042;38.994;2022-07-25T06:56:57;100642.91;;;28.80;44.34
50684;BME280;36654;45.042;38.994;2022-07-25T06:59:22;100677.47;;;28.94;44.97
50684;BME280;36654;45.042;38.994;2022-07-25T07:01:48;100676.69;;;28.92;45.25
50684;BME280;36654;45.042;38.994;2022-07-25T07:04:14;100674.38;;;28.86;44.54
50684;BME280;36654;45.042;38.994;2022-07-25T07:06:40;100676.69;;;28.92;45.53
50684;BME280;36654;45.042;38.994;2022-07-25T07:09:06;100684.88;;;28.92;45.34
50684;BME280;36654;45.042;38.994;2022-07-25T07:11:32;100666.13;;;29.00;44.39
50684;BME280;36654;45.042;38.994;2022-07-25T07:13:59;100679.66;;;29.16;43.04
50684;BME280;36654;45.042;38.994;2022-07-25T07:16:25;100663.00;;;29.21;43.32
50684;BME280;36654;45.042;38.994;2022-07-25T07:18:51;100667.09;;;29.41;44.04
50684;BME280;36654;45.042;38.994;2022-07-25T07:21:16;100674.50;;;29.39;43.34
50684;BME280;36654;45.042;38.994;2022-07-25T07:23:42;100659.31;;;29.48;43.09
50684;BME280;36654;45.042;38.994;2022-07-25T07:26:07;100677.50;;;29.61;43.46
50684;BME280;36654;45.042;38.994;2022-07-25T07:28:33;100669.94;;;29.65;43.60
50684;BME280;36654;45.042;38.994;2022-07-25T07:30:59;100659.34;;;29.60;42.87
50684;BME280;36654;45.042;38.994;2022-07-25T07:33:24;100667.06;;;29.68;43.17
50684;BME280;36654;45.042;38.994;2022-07-25T07:35:50;100654.50;;;29.65;43.51
50684;BME280;36654;45.042;38.994;2022-07-25T07:38:16;100659.69;;;29.56;43.85
50684;BME280;36654;45.042;38.994;2022-07-25T07:40:42;100659.25;;;29.62;44.20
50684;BME280;36654;45.042;38.994;2022-07-25T07:43:08;100668.56;;;29.72;43.29
50684;BME280;36654;45.042;38.994;2022-07-25T07:45:35;100656.13;;;29.81;42.74
50684;BME280;36654;45.042;38.994;2022-07-25T07:48:01;100659.50;;;29.84;42.30
50684;BME280;36654;45.042;38.994;2022-07-25T07:50:27;100644.97;;;29.97;42.19
50684;BME280;36654;45.042;38.994;2022-07-25T07:52:54;100644.13;;;29.96;42.56
50684;BME280;36654;45.042;38.994;2022-07-25T07:55:21;100651.09;;;29.87;42.41
50684;BME280;36654;45.042;38.994;2022-07-25T07:58:05;100648.91;;;29.93;42.83
50684;BME280;36654;45.042;38.994;2022-07-25T08:00:31;100649.44;;;29.98;43.24
50684;BME280;36654;45.042;38.994;2022-07-25T08:03:00;100652.94;;;30.13;41.89
50684;BME280;36654;45.042;38.994;2022-07-25T08:05:31;100631.09;;;30.00;42.20
50684;BME280;36654;45.042;38.994;2022-07-25T08:07:58;100653.31;;;30.08;42.50
50684;BME280;36654;45.042;38.994;2022-07-25T08:10:27;100655.25;;;30.06;41.67
50684;BME280;36654;45.042;38.994;2022-07-25T08:12:53;100628.81;;;29.94;42.18
50684;BME280;36654;45.042;38.994;2022-07-25T08:15:21;100633.16;;;30.09;42.13
50684;BME280;36654;45.042;38.994;2022-07-25T08:17:47;100637.44;;;30.13;42.22
50684;BME280;36654;45.042;38.994;2022-07-25T08:20:15;100637.44;;;30.13;42.24
50684;BME280;36654;45.042;38.994;2022-07-25T08:22:43;100646.84;;;30.09;41.65
50684;BME280;36654;45.042;38.994;2022-07-25T08:25:12;100636.00;;;30.07;41.59
50684;BME280;36654;45.042;38.994;2022-07-25T08:27:38;100590.78;;;29.91;41.39
50684;BME280;36654;45.042;38.994;2022-07-25T08:30:05;100625.72;;;30.24;41.61
50684;BME280;36654;45.042;38.994;2022-07-25T08:32:31;100632.09;;;30.24;40.43
50684;BME280;36654;45.042;38.994;2022-07-25T08:34:57;100640.28;;;30.24;41.06
50684;BME280;36654;45.042;38.994;2022-07-25T08:37:24;100619.38;;;30.23;41.59
50684;BME280;36654;45.042;38.994;2022-07-25T08:39:50;100634.38;;;30.30;40.92
50684;BME280;36654;45.042;38.994;2022-07-25T08:42:19;100622.03;;;30.25;40.74
50684;BME280;36654;45.042;38.994;2022-07-25T08:44:57;100625.53;;;30.27;40.81
50684;BME280;36654;45.042;38.994;2022-07-25T08:47:23;100630.66;;;30.31;40.80
50684;BME280;36654;45.042;38.994;2022-07-25T08:49:49;100617.00;;;30.31;40.77
50684;BME280;36654;45.042;38.994;2022-07-25T08:52:17;100641.91;;;30.40;40.04
50684;BME280;36654;45.042;38.994;2022-07-25T08:54:45;100594.88;;;30.22;40.41
50684;BME280;36654;45.042;38.994;2022-07-25T08:57:12;100633.56;;;30.54;40.05
50684;BME280;36654;45.042;38.994;2022-07-25T08:59:38;100635.41;;;30.53;39.11
50684;BME280;36654;45.042;38.994;2022-07-25T09:02:03;100614.56;;;30.40;38.13
50684;BME280;36654;45.042;38.994;2022-07-25T09:04:35;100645.38;;;30.55;38.28
50684;BME280;36654;45.042;38.994;2022-07-25T09:07:01;100632.66;;;30.66;37.97
50684;BME280;36654;45.042;38.994;2022-07-25T09:09:34;100629.44;;;30.72;37.70
50684;BME280;36654;45.042;38.994;2022-07-25T09:12:00;100642.22;;;30.85;37.58
50684;BME280;36654;45.042;38.994;2022-07-25T09:14:26;100633.69;;;30.77;37.50
50684;BME280;36654;45.042;38.994;2022-07-25T09:16:54;100616.22;;;30.66;37.26
50684;BME280;36654;45.042;38.994;2022-07-25T09:19:22;100622.34;;;30.70;37.35
50684;BME280;36654;45.042;38.994;2022-07-25T09:22:08;100638.28;;;30.89;37.98
50684;BME280;36654;45.042;38.994;2022-07-25T09:24:34;100620.94;;;31.01;38.01
50684;BME280;36654;45.042;38.994;2022-07-25T09:27:09;100642.13;;;31.10;37.24
50684;BME280;36654;45.042;38.994;2022-07-25T09:29:38;100635.31;;;31.16;37.09
50684;BME280;36654;45.042;38.994;2022-07-25T09:32:30;100605.09;;;31.29;37.53
50684;BME280;36654;45.042;38.994;2022-07-25T09:34:56;100610.94;;;31.24;36.84
50684;BME280;36654;45.042;38.994;2022-07-25T09:37:25;100620.25;;;31.22;36.77
50684;BME280;36654;45.042;38.994;2022-07-25T09:39:51;100612.56;;;31.27;37.16
50684;BME280;36654;45.042;38.994;2022-07-25T09:42:25;100618.31;;;31.35;36.64
50684;BME280;36654;45.042;38.994;2022-07-25T09:47:30;100614.38;;;31.39;36.80
50684;BME280;36654;45.042;38.994;2022-07-25T09:49:57;100597.50;;;31.45;36.71
50684;BME280;36654;45.042;38.994;2022-07-25T09:52:22;100594.09;;;31.42;36.36
50684;BME280;36654;45.042;38.994;2022-07-25T09:54:48;100615.41;;;31.49;36.82
50684;BME280;36654;45.042;38.994;2022-07-25T09:57:14;100584.34;;;31.37;36.13
50684;BME280;36654;45.042;38.994;2022-07-25T09:59:41;100604.50;;;31.36;36.47
50684;BME280;36654;45.042;38.994;2022-07-25T10:02:55;100599.22;;;31.22;37.31
50684;BME280;36654;45.042;38.994;2022-07-25T10:05:14;100592.63;;;31.13;37.23
50684;BME280;36654;45.042;38.994;2022-07-25T10:07:44;100586.03;;;31.16;37.47
50684;BME280;36654;45.042;38.994;2022-07-25T10:10:21;100595.63;;;31.22;37.44
50684;BME280;36654;45.042;38.994;2022-07-25T10:12:58;100589.91;;;31.25;36.98
50684;BME280;36654;45.042;38.994;2022-07-25T10:15:25;100570.97;;;31.22;36.64
50684;BME280;36654;45.042;38.994;2022-07-25T10:18:01;100562.69;;;31.34;36.74
50684;BME280;36654;45.042;38.994;2022-07-25T10:20:28;100512.22;;;31.03;36.70
50684;BME280;36654;45.042;38.994;2022-07-25T10:22:54;100559.81;;;31.36;37.11
50684;BME280;36654;45.042;38.994;2022-07-25T10:25:19;100564.63;;;31.45;37.14
50684;BME280;36654;45.042;38.994;2022-07-25T10:27:53;100557.53;;;31.54;39.08
50684;BME280;36654;45.042;38.994;2022-07-25T10:30:34;100551.94;;;31.55;38.88
50684;BME280;36654;45.042;38.994;2022-07-25T10:33:10;100565.50;;;31.57;38.19
50684;BME280;36654;45.042;38.994;2022-07-25T10:35:36;100520.69;;;31.23;38.12
50684;BME280;36654;45.042;38.994;2022-07-25T10:38:03;100578.25;;;31.34;38.37
50684;BME280;36654;45.042;38.994;2022-07-25T10:40:44;100570.19;;;31.08;38.31
50684;BME280;36654;45.042;38.994;2022-07-25T10:43:18;100552.94;;;30.84;38.65
50684;BME280;36654;45.042;38.994;2022-07-25T10:45:58;100564.28;;;30.78;39.60
50684;BME280;36654;45.042;38.994;2022-07-25T10:48:27;100561.81;;;30.74;41.05
50684;BME280;36654;45.042;38.994;2022-07-25T10:51:04;100565.19;;;30.78;42.24
50684;BME280;36654;45.042;38.994;2022-07-25T10:53:44;100567.25;;;30.87;41.61
50684;BME280;36654;45.042;38.994;2022-07-25T10:56:16;100582.47;;;30.79;42.80
50684;BME280;36654;45.042;38.994;2022-07-25T10:58:55;100567.00;;;30.66;43.14
50684;BME280;36654;45.042;38.994;2022-07-25T11:01:33;100561.56;;;30.53;44.47
50684;BME280;36654;45.042;38.994;2022-07-25T11:04:05;100564.66;;;30.49;44.92
50684;BME280;36654;45.042;38.994;2022-07-25T11:06:40;100559.19;;;30.49;44.76
50684;BME280;36654;45.042;38.994;2022-07-25T11:09:36;100549.59;;;30.43;44.78
50684;BME280;36654;45.042;38.994;2022-07-25T11:12:02;100547.34;;;30.24;45.24
50684;BME280;36654;45.042;38.994;2022-07-25T11:14:33;100562.31;;;30.19;45.99
50684;BME280;36654;45.042;38.994;2022-07-25T11:17:20;100559.72;;;30.04;46.28
50684;BME280;36654;45.042;38.994;2022-07-25T11:22:19;100537.22;;;29.75;46.56
50684;BME280;36654;45.042;38.994;2022-07-25T11:24:46;100536.03;;;29.54;46.51
50684;BME280;36654;45.042;38.994;2022-07-25T11:27:22;100487.31;;;29.22;46.87
50684;BME280;36654;45.042;38.994;2022-07-25T11:29:48;100526.75;;;29.43;47.26
50684;BME280;36654;45.042;38.994;2022-07-25T11:32:14;100544.00;;;29.31;47.97
50684;BME280;36654;45.042;38.994;2022-07-25T11:35:06;100542.13;;;29.19;48.46
50684;BME280;36654;45.042;38.994;2022-07-25T11:37:36;100540.56;;;29.15;48.46
50684;BME280;36654;45.042;38.994;2022-07-25T11:40:03;100526.50;;;29.08;48.39
50684;BME280;36654;45.042;38.994;2022-07-25T11:42:39;100542.38;;;29.01;49.50
50684;BME280;36654;45.042;38.994;2022-07-25T11:45:15;100546.06;;;29.00;49.91
50684;BME280;36654;45.042;38.994;2022-07-25T11:47:41;100556.34;;;28.97;50.64
50684;BME280;36654;45.042;38.994;2022-07-25T11:50:07;100529.28;;;28.94;50.18
50684;BME280;36654;45.042;38.994;2022-07-25T11:52:39;100570.19;;;28.94;50.42
50684;BME280;36654;45.042;38.994;2022-07-25T11:55:15;100594.72;;;28.81;50.53
50684;BME280;36654;45.042;38.994;2022-07-25T11:57:43;100553.50;;;28.44;49.17
50684;BME280;36654;45.042;38.994;2022-07-25T12:02:41;100639.59;;;28.34;47.92
50684;BME280;36654;45.042;38.994;2022-07-25T12:05:09;100624.81;;;28.09;47.91
50684;BME280;36654;45.042;38.994;2022-07-25T12:07:43;100628.00;;;28.02;48.29
50684;BME280;36654;45.042;38.994;2022-07-25T12:10:15;100638.63;;;27.92;49.14
50684;BME280;36654;45.042;38.994;2022-07-25T12:12:42;100640.75;;;27.87;49.38
50684;BME280;36654;45.042;38.994;2022-07-25T12:15:09;100650.97;;;27.83;49.69
50684;BME280;36654;45.042;38.994;2022-07-25T12:17:36;100649.44;;;27.63;49.62
50684;BME280;36654;45.042;38.994;2022-07-25T12:20:03;100687.19;;;27.69;50.08
50684;BME280;36654;45.042;38.994;2022-07-25T12:22:29;100684.66;;;27.66;50.19
50684;BME280;36654;45.042;38.994;2022-07-25T12:24:55;100701.66;;;27.40;50.06
50684;BME280;36654;45.042;38.994;2022-07-25T12:27:20;100704.69;;;27.03;50.32
50684;BME280;36654;45.042;38.994;2022-07-25T12:29:46;100712.59;;;26.43;52.40
50684;BME280;36654;45.042;38.994;2022-07-25T12:32:12;100745.34;;;25.72;54.98
50684;BME280;36654;45.042;38.994;2022-07-25T12:34:37;100751.63;;;25.18;57.62
50684;BME280;36654;45.042;38.994;2022-07-25T12:37:03;100752.66;;;24.78;59.36
50684;BME280;36654;45.042;38.994;2022-07-25T12:39:29;100719.88;;;24.45;59.80
50684;BME280;36654;45.042;38.994;2022-07-25T12:41:54;100742.09;;;24.53;60.39
50684;BME280;36654;45.042;38.994;2022-07-25T12:44:20;100752.81;;;24.36;58.81
50684;BME280;36654;45.042;38.994;2022-07-25T12:46:45;100727.38;;;24.19;58.15
50684;BME280;36654;45.042;38.994;2022-07-25T12:49:11;100671.38;;;23.80;58.84